sensor_id;sensor_type;location;lat;lon;timestamp;temperature;humidity
25914;DHT22;13718;50.922;5.346;2022-10-20T00:02:03;12.50;99.90
25914;DHT22;13718;50.922;5.346;2022-10-20T00:04:29;12.50;99.90
25914;DHT22;13718;50.922;5.346;2022-10-20T00:06:54;12.30;99.90
25914;DHT22;13718;50.922;5.346;2022-10-20T00:09:20;12.10;99.90
25914;DHT22;13718;50.922;5.346;2022-10-20T00:11:45;12.20;99.90
25914;DHT22;13718;50.922;5.346;2022-10-20T00:14:11;12.10;99.90
25914;DHT22;13718;50.922;5.346;2022-10-20T00:16:38;12.00;99.90
25914;DHT22;13718;50.922;5.346;2022-10-20T00:19:04;12.00;99.90
25914;DHT22;13718;50.922;5.346;2022-10-20T00:21:31;11.90;99.90
25914;DHT22;13718;50.922;5.346;2022-10-20T00:24:00;11.90;99.90
25914;DHT22;13718;50.922;5.346;2022-10-20T00:26:28;11.80;99.90
25914;DHT22;13718;50.922;5.346;2022-10-20T00:28:54;11.80;99.90
25914;DHT22;13718;50.922;5.346;2022-10-20T00:31:22;11.80;99.90
25914;DHT22;13718;50.922;5.346;2022-10-20T00:33:48;11.80;99.90
25914;DHT22;13718;50.922;5.346;2022-10-20T00:36:15;11.70;99.90
25914;DHT22;13718;50.922;5.346;2022-10-20T00:38:42;11.80;99.90
25914;DHT22;13718;50.922;5.346;2022-10-20T00:41:10;11.90;99.90
25914;DHT22;13718;50.922;5.346;2022-10-20T00:43:44;12.00;99.90
25914;DHT22;13718;50.922;5.346;2022-10-20T00:46:12;12.20;99.90
25914;DHT22;13718;50.922;5.346;2022-10-20T00:48:39;12.30;99.90
25914;DHT22;13718;50.922;5.346;2022-10-20T00:51:05;12.30;99.90
25914;DHT22;13718;50.922;5.346;2022-10-20T00:53:31;12.20;99.90
25914;DHT22;13718;50.922;5.346;2022-10-20T00:55:57;12.10;99.90
25914;DHT22;13718;50.922;5.346;2022-10-20T00:58:24;12.00;99.90
25914;DHT22;13718;50.922;5.346;2022-10-20T01:00:53;11.90;99.90
25914;DHT22;13718;50.922;5.346;2022-10-20T01:03:23;11.90;99.90
25914;DHT22;13718;50.922;5.346;2022-10-20T01:05:50;12.10;99.90
25914;DHT22;13718;50.922;5.346;2022-10-20T01:08:16;12.10;99.90
25914;DHT22;13718;50.922;5.346;2022-10-20T01:10:55;12.00;99.90
25914;DHT22;13718;50.922;5.346;2022-10-20T01:13:29;11.80;99.90
25914;DHT22;13718;50.922;5.346;2022-10-20T01:16:12;11.80;99.90
25914;DHT22;13718;50.922;5.346;2022-10-20T01:21:51;11.70;99.90
25914;DHT22;13718;50.922;5.346;2022-10-20T01:24:47;11.70;99.90
25914;DHT22;13718;50.922;5.346;2022-10-20T01:27:19;11.80;99.90
25914;DHT22;13718;50.922;5.346;2022-10-20T01:29:52;11.70;99.90
25914;DHT22;13718;50.922;5.346;2022-10-20T01:35:17;11.70;99.90
25914;DHT22;13718;50.922;5.346;2022-10-20T01:43:03;11.60;99.90
25914;DHT22;13718;50.922;5.346;2022-10-20T01:45:32;11.50;99.90
25914;DHT22;13718;50.922;5.346;2022-10-20T01:48:02;11.50;99.90
25914;DHT22;13718;50.922;5.346;2022-10-20T01:50:28;11.50;99.90
25914;DHT22;13718;50.922;5.346;2022-10-20T01:52:58;11.50;99.90
25914;DHT22;13718;50.922;5.346;2022-10-20T01:55:25;11.50;99.90
25914;DHT22;13718;50.922;5.346;2022-10-20T02:00:34;11.60;99.90
25914;DHT22;13718;50.922;5.346;2022-10-20T02:03:30;11.70;99.90
25914;DHT22;13718;50.922;5.346;2022-10-20T02:08:58;11.80;99.90
25914;DHT22;13718;50.922;5.346;2022-10-20T02:11:27;11.80;99.90
25914;DHT22;13718;50.922;5.346;2022-10-20T02:13:55;11.80;99.90
25914;DHT22;13718;50.922;5.346;2022-10-20T02:16:38;11.80;99.90
25914;DHT22;13718;50.922;5.346;2022-10-20T02:19:06;11.90;99.90
25914;DHT22;13718;50.922;5.346;2022-10-20T02:21:33;11.90;99.90
25914;DHT22;13718;50.922;5.346;2022-10-20T02:24:00;11.90;99.90
25914;DHT22;13718;50.922;5.346;2022-10-20T02:26:29;11.90;99.90
25914;DHT22;13718;50.922;5.346;2022-10-20T02:28:59;12.00;99.90
25914;DHT22;13718;50.922;5.346;2022-10-20T02:31:25;12.00;99.90
25914;DHT22;13718;50.922;5.346;2022-10-20T02:33:53;12.20;99.90
25914;DHT22;13718;50.922;5.346;2022-10-20T02:36:20;12.20;99.90
25914;DHT22;13718;50.922;5.346;2022-10-20T02:38:49;12.20;99.90
25914;DHT22;13718;50.922;5.346;2022-10-20T02:41:15;12.30;99.90
25914;DHT22;13718;50.922;5.346;2022-10-20T02:43:40;12.40;99.90
25914;DHT22;13718;50.922;5.346;2022-10-20T02:46:06;12.60;99.90
25914;DHT22;13718;50.922;5.346;2022-10-20T02:48:32;12.60;99.90
25914;DHT22;13718;50.922;5.346;2022-10-20T02:50:57;12.50;99.90
25914;DHT22;13718;50.922;5.346;2022-10-20T02:53:23;12.60;99.90
25914;DHT22;13718;50.922;5.346;2022-10-20T02:55:48;12.50;99.90
25914;DHT22;13718;50.922;5.346;2022-10-20T02:58:14;12.50;99.90
25914;DHT22;13718;50.922;5.346;2022-10-20T03:00:39;12.60;99.90
25914;DHT22;13718;50.922;5.346;2022-10-20T03:03:05;12.80;99.90
25914;DHT22;13718;50.922;5.346;2022-10-20T03:05:31;12.80;99.90
25914;DHT22;13718;50.922;5.346;2022-10-20T03:07:56;12.80;99.90
25914;DHT22;13718;50.922;5.346;2022-10-20T03:10:22;12.70;99.90
25914;DHT22;13718;50.922;5.346;2022-10-20T03:12:47;12.50;99.90
25914;DHT22;13718;50.922;5.346;2022-10-20T03:15:13;12.50;99.90
25914;DHT22;13718;50.922;5.346;2022-10-20T03:17:39;12.40;99.90
25914;DHT22;13718;50.922;5.346;2022-10-20T03:20:06;12.30;99.90
25914;DHT22;13718;50.922;5.346;2022-10-20T03:22:32;12.20;99.90
25914;DHT22;13718;50.922;5.346;2022-10-20T03:24:57;12.40;99.90
25914;DHT22;13718;50.922;5.346;2022-10-20T03:27:23;12.50;99.90
25914;DHT22;13718;50.922;5.346;2022-10-20T03:29:49;12.50;99.90
25914;DHT22;13718;50.922;5.346;2022-10-20T03:32:14;12.50;99.90
25914;DHT22;13718;50.922;5.346;2022-10-20T03:34:40;12.50;99.90
25914;DHT22;13718;50.922;5.346;2022-10-20T03:37:05;12.40;99.90
25914;DHT22;13718;50.922;5.346;2022-10-20T03:39:31;12.50;99.90
25914;DHT22;13718;50.922;5.346;2022-10-20T03:41:56;12.50;99.90
25914;DHT22;13718;50.922;5.346;2022-10-20T03:44:23;12.50;99.90
25914;DHT22;13718;50.922;5.346;2022-10-20T03:46:48;12.40;99.90
25914;DHT22;13718;50.922;5.346;2022-10-20T03:49:14;12.30;99.90
25914;DHT22;13718;50.922;5.346;2022-10-20T03:51:40;12.50;99.90
25914;DHT22;13718;50.922;5.346;2022-10-20T03:54:05;12.60;99.90
25914;DHT22;13718;50.922;5.346;2022-10-20T03:56:31;12.70;99.90
25914;DHT22;13718;50.922;5.346;2022-10-20T03:58:57;12.70;99.90
25914;DHT22;13718;50.922;5.346;2022-10-20T04:01:27;12.70;99.90
25914;DHT22;13718;50.922;5.346;2022-10-20T04:03:54;12.60;99.90
25914;DHT22;13718;50.922;5.346;2022-10-20T04:06:19;12.50;99.90
25914;DHT22;13718;50.922;5.346;2022-10-20T04:08:45;12.50;99.90
25914;DHT22;13718;50.922;5.346;2022-10-20T04:11:11;12.60;99.90
25914;DHT22;13718;50.922;5.346;2022-10-20T04:13:37;12.60;99.90
25914;DHT22;13718;50.922;5.346;2022-10-20T04:16:02;12.60;99.90
25914;DHT22;13718;50.922;5.346;2022-10-20T04:18:28;12.70;99.90
25914;DHT22;13718;50.922;5.346;2022-10-20T04:20:53;12.70;99.90
25914;DHT22;13718;50.922;5.346;2022-10-20T04:23:19;12.90;99.90
25914;DHT22;13718;50.922;5.346;2022-10-20T04:25:45;13.00;99.90
25914;DHT22;13718;50.922;5.346;2022-10-20T04:28:13;12.90;99.90
25914;DHT22;13718;50.922;5.346;2022-10-20T04:30:39;12.70;99.90
25914;DHT22;13718;50.922;5.346;2022-10-20T04:33:05;12.60;99.90
25914;DHT22;13718;50.922;5.346;2022-10-20T04:35:31;12.60;99.90
25914;DHT22;13718;50.922;5.346;2022-10-20T04:37:56;12.90;99.90
25914;DHT22;13718;50.922;5.346;2022-10-20T04:40:22;13.00;99.90
25914;DHT22;13718;50.922;5.346;2022-10-20T04:42:47;13.10;99.90
25914;DHT22;13718;50.922;5.346;2022-10-20T04:45:13;13.00;99.90
25914;DHT22;13718;50.922;5.346;2022-10-20T04:47:39;12.70;99.90
25914;DHT22;13718;50.922;5.346;2022-10-20T04:50:04;12.50;99.90
25914;DHT22;13718;50.922;5.346;2022-10-20T04:52:30;12.60;99.90
25914;DHT22;13718;50.922;5.346;2022-10-20T04:54:56;12.70;99.90
25914;DHT22;13718;50.922;5.346;2022-10-20T04:57:21;12.60;99.90
25914;DHT22;13718;50.922;5.346;2022-10-20T04:59:47;12.60;99.90
25914;DHT22;13718;50.922;5.346;2022-10-20T05:02:13;12.60;99.90
25914;DHT22;13718;50.922;5.346;2022-10-20T05:04:38;12.50;99.90
25914;DHT22;13718;50.922;5.346;2022-10-20T05:07:04;12.30;99.90
25914;DHT22;13718;50.922;5.346;2022-10-20T05:09:30;12.30;99.90
25914;DHT22;13718;50.922;5.346;2022-10-20T05:11:57;12.20;99.90
25914;DHT22;13718;50.922;5.346;2022-10-20T05:14:23;12.20;99.90
25914;DHT22;13718;50.922;5.346;2022-10-20T05:16:48;12.10;99.90
25914;DHT22;13718;50.922;5.346;2022-10-20T05:19:14;12.10;99.90
25914;DHT22;13718;50.922;5.346;2022-10-20T05:21:40;12.00;99.90
25914;DHT22;13718;50.922;5.346;2022-10-20T05:24:05;11.90;99.90
25914;DHT22;13718;50.922;5.346;2022-10-20T05:26:33;12.00;99.90
25914;DHT22;13718;50.922;5.346;2022-10-20T05:29:04;12.00;99.90
25914;DHT22;13718;50.922;5.346;2022-10-20T05:31:30;11.90;99.90
25914;DHT22;13718;50.922;5.346;2022-10-20T05:33:56;11.90;99.90
25914;DHT22;13718;50.922;5.346;2022-10-20T05:36:24;11.90;99.90
25914;DHT22;13718;50.922;5.346;2022-10-20T05:38:51;11.90;99.90
25914;DHT22;13718;50.922;5.346;2022-10-20T05:41:29;12.00;99.90
25914;DHT22;13718;50.922;5.346;2022-10-20T05:44:00;12.10;99.90
25914;DHT22;13718;50.922;5.346;2022-10-20T05:46:29;12.10;99.90
25914;DHT22;13718;50.922;5.346;2022-10-20T05:48:57;12.00;99.90
25914;DHT22;13718;50.922;5.346;2022-10-20T05:51:25;12.00;99.90
25914;DHT22;13718;50.922;5.346;2022-10-20T05:53:53;12.00;99.90
25914;DHT22;13718;50.922;5.346;2022-10-20T05:56:20;12.00;99.90
25914;DHT22;13718;50.922;5.346;2022-10-20T05:58:46;12.10;99.90
25914;DHT22;13718;50.922;5.346;2022-10-20T06:01:17;12.10;99.90
25914;DHT22;13718;50.922;5.346;2022-10-20T06:03:58;12.30;99.90
25914;DHT22;13718;50.922;5.346;2022-10-20T06:06:26;12.40;99.90
25914;DHT22;13718;50.922;5.346;2022-10-20T06:08:52;12.30;99.90
25914;DHT22;13718;50.922;5.346;2022-10-20T06:11:18;12.40;99.90
25914;DHT22;13718;50.922;5.346;2022-10-20T06:13:44;12.30;99.90
25914;DHT22;13718;50.922;5.346;2022-10-20T06:16:15;12.30;99.90
25914;DHT22;13718;50.922;5.346;2022-10-20T06:18:42;12.20;99.90
25914;DHT22;13718;50.922;5.346;2022-10-20T06:21:13;12.20;99.90
25914;DHT22;13718;50.922;5.346;2022-10-20T06:23:39;12.30;99.90
25914;DHT22;13718;50.922;5.346;2022-10-20T06:26:13;12.30;99.90
25914;DHT22;13718;50.922;5.346;2022-10-20T06:28:40;12.30;99.90
25914;DHT22;13718;50.922;5.346;2022-10-20T06:31:17;12.60;99.90
25914;DHT22;13718;50.922;5.346;2022-10-20T06:33:43;12.80;99.90
25914;DHT22;13718;50.922;5.346;2022-10-20T06:36:10;12.80;99.90
25914;DHT22;13718;50.922;5.346;2022-10-20T06:38:36;12.90;99.90
25914;DHT22;13718;50.922;5.346;2022-10-20T06:41:04;12.90;99.90
25914;DHT22;13718;50.922;5.346;2022-10-20T06:43:30;13.20;99.90
25914;DHT22;13718;50.922;5.346;2022-10-20T06:46:07;13.50;99.90
25914;DHT22;13718;50.922;5.346;2022-10-20T06:48:35;13.50;99.90
25914;DHT22;13718;50.922;5.346;2022-10-20T06:51:09;13.50;99.90
25914;DHT22;13718;50.922;5.346;2022-10-20T06:53:35;13.50;99.90
25914;DHT22;13718;50.922;5.346;2022-10-20T06:56:12;13.50;99.90
25914;DHT22;13718;50.922;5.346;2022-10-20T06:58:39;13.60;99.90
25914;DHT22;13718;50.922;5.346;2022-10-20T07:01:10;13.70;99.90
25914;DHT22;13718;50.922;5.346;2022-10-20T07:03:37;13.50;99.90
25914;DHT22;13718;50.922;5.346;2022-10-20T07:06:04;13.50;99.90
25914;DHT22;13718;50.922;5.346;2022-10-20T07:08:32;13.50;99.90
25914;DHT22;13718;50.922;5.346;2022-10-20T07:11:02;13.70;99.90
25914;DHT22;13718;50.922;5.346;2022-10-20T07:13:28;13.60;99.90
25914;DHT22;13718;50.922;5.346;2022-10-20T07:15:55;13.80;99.90
25914;DHT22;13718;50.922;5.346;2022-10-20T07:18:21;13.80;99.90
25914;DHT22;13718;50.922;5.346;2022-10-20T07:20:47;13.90;99.90
25914;DHT22;13718;50.922;5.346;2022-10-20T07:23:13;14.10;99.90
25914;DHT22;13718;50.922;5.346;2022-10-20T07:25:39;14.20;99.90
25914;DHT22;13718;50.922;5.346;2022-10-20T07:28:04;14.20;99.90
25914;DHT22;13718;50.922;5.346;2022-10-20T07:30:30;14.20;99.90
25914;DHT22;13718;50.922;5.346;2022-10-20T07:32:56;14.20;99.90
25914;DHT22;13718;50.922;5.346;2022-10-20T07:35:21;14.20;99.90
25914;DHT22;13718;50.922;5.346;2022-10-20T07:37:48;14.10;99.90
25914;DHT22;13718;50.922;5.346;2022-10-20T07:40:13;14.10;99.90
25914;DHT22;13718;50.922;5.346;2022-10-20T07:42:39;14.20;99.90
25914;DHT22;13718;50.922;5.346;2022-10-20T07:45:05;14.20;99.90
25914;DHT22;13718;50.922;5.346;2022-10-20T07:47:31;14.30;99.90
25914;DHT22;13718;50.922;5.346;2022-10-20T07:49:56;14.50;99.90
25914;DHT22;13718;50.922;5.346;2022-10-20T07:52:22;14.50;99.90
25914;DHT22;13718;50.922;5.346;2022-10-20T07:54:47;14.50;99.90
25914;DHT22;13718;50.922;5.346;2022-10-20T07:57:13;14.60;99.90
25914;DHT22;13718;50.922;5.346;2022-10-20T07:59:39;14.60;99.90
25914;DHT22;13718;50.922;5.346;2022-10-20T08:02:04;14.60;99.90
25914;DHT22;13718;50.922;5.346;2022-10-20T08:04:30;14.80;99.90
25914;DHT22;13718;50.922;5.346;2022-10-20T08:06:56;14.80;99.90
25914;DHT22;13718;50.922;5.346;2022-10-20T08:09:22;15.00;99.90
25914;DHT22;13718;50.922;5.346;2022-10-20T08:11:48;15.20;99.90
25914;DHT22;13718;50.922;5.346;2022-10-20T08:14:14;15.30;99.90
25914;DHT22;13718;50.922;5.346;2022-10-20T08:16:39;15.50;99.90
25914;DHT22;13718;50.922;5.346;2022-10-20T08:19:05;15.60;99.90
25914;DHT22;13718;50.922;5.346;2022-10-20T08:21:31;15.80;99.90
25914;DHT22;13718;50.922;5.346;2022-10-20T08:23:56;15.90;99.90
25914;DHT22;13718;50.922;5.346;2022-10-20T08:26:24;15.90;99.90
25914;DHT22;13718;50.922;5.346;2022-10-20T08:28:51;15.90;99.90
25914;DHT22;13718;50.922;5.346;2022-10-20T08:31:17;16.10;99.90
25914;DHT22;13718;50.922;5.346;2022-10-20T08:33:43;16.20;99.90
25914;DHT22;13718;50.922;5.346;2022-10-20T08:36:11;16.30;99.90
25914;DHT22;13718;50.922;5.346;2022-10-20T08:38:38;16.40;99.90
25914;DHT22;13718;50.922;5.346;2022-10-20T08:41:06;16.60;99.90
25914;DHT22;13718;50.922;5.346;2022-10-20T08:43:39;16.60;99.90
25914;DHT22;13718;50.922;5.346;2022-10-20T08:46:06;16.50;99.90
25914;DHT22;13718;50.922;5.346;2022-10-20T08:48:34;16.70;99.90
25914;DHT22;13718;50.922;5.346;2022-10-20T08:51:00;16.80;99.90
25914;DHT22;13718;50.922;5.346;2022-10-20T08:53:26;17.00;99.90
25914;DHT22;13718;50.922;5.346;2022-10-20T08:55:54;17.00;99.90
25914;DHT22;13718;50.922;5.346;2022-10-20T08:58:22;17.10;99.90
25914;DHT22;13718;50.922;5.346;2022-10-20T09:00:55;17.10;99.90
25914;DHT22;13718;50.922;5.346;2022-10-20T09:03:29;17.20;99.90
25914;DHT22;13718;50.922;5.346;2022-10-20T09:06:06;17.30;99.90
25914;DHT22;13718;50.922;5.346;2022-10-20T09:08:34;17.20;99.90
25914;DHT22;13718;50.922;5.346;2022-10-20T09:11:03;17.10;99.90
25914;DHT22;13718;50.922;5.346;2022-10-20T09:13:31;17.10;99.90
25914;DHT22;13718;50.922;5.346;2022-10-20T09:16:03;17.20;99.90
25914;DHT22;13718;50.922;5.346;2022-10-20T09:18:31;17.20;99.90
25914;DHT22;13718;50.922;5.346;2022-10-20T09:21:00;17.00;99.90
25914;DHT22;13718;50.922;5.346;2022-10-20T09:23:38;17.00;99.90
25914;DHT22;13718;50.922;5.346;2022-10-20T09:26:12;16.90;99.90
25914;DHT22;13718;50.922;5.346;2022-10-20T09:28:38;16.90;99.90
25914;DHT22;13718;50.922;5.346;2022-10-20T09:31:32;16.70;99.90
25914;DHT22;13718;50.922;5.346;2022-10-20T09:33:58;16.80;99.90
25914;DHT22;13718;50.922;5.346;2022-10-20T09:36:30;16.70;99.90
25914;DHT22;13718;50.922;5.346;2022-10-20T09:38:59;16.80;99.90
25914;DHT22;13718;50.922;5.346;2022-10-20T09:41:34;16.80;99.90
25914;DHT22;13718;50.922;5.346;2022-10-20T09:44:07;16.80;99.90
25914;DHT22;13718;50.922;5.346;2022-10-20T09:46:43;16.60;99.90
25914;DHT22;13718;50.922;5.346;2022-10-20T09:49:33;16.60;99.90
25914;DHT22;13718;50.922;5.346;2022-10-20T09:52:00;16.50;99.90
25914;DHT22;13718;50.922;5.346;2022-10-20T09:54:27;16.50;99.90
25914;DHT22;13718;50.922;5.346;2022-10-20T09:57:06;16.50;99.90
25914;DHT22;13718;50.922;5.346;2022-10-20T09:59:36;16.60;99.90
25914;DHT22;13718;50.922;5.346;2022-10-20T10:04:52;16.50;99.90
25914;DHT22;13718;50.922;5.346;2022-10-20T10:12:24;16.30;99.90
25914;DHT22;13718;50.922;5.346;2022-10-20T10:14:54;16.20;99.90
25914;DHT22;13718;50.922;5.346;2022-10-20T10:17:33;16.30;99.90
25914;DHT22;13718;50.922;5.346;2022-10-20T10:20:00;16.40;99.90
25914;DHT22;13718;50.922;5.346;2022-10-20T10:22:26;16.40;99.90
25914;DHT22;13718;50.922;5.346;2022-10-20T10:24:55;16.40;99.90
25914;DHT22;13718;50.922;5.346;2022-10-20T10:27:30;16.40;99.90
25914;DHT22;13718;50.922;5.346;2022-10-20T10:32:48;16.40;99.90
25914;DHT22;13718;50.922;5.346;2022-10-20T10:35:30;16.40;99.90
25914;DHT22;13718;50.922;5.346;2022-10-20T10:37:57;16.30;99.90
25914;DHT22;13718;50.922;5.346;2022-10-20T10:40:59;16.30;99.90
25914;DHT22;13718;50.922;5.346;2022-10-20T10:43:44;16.30;99.90
25914;DHT22;13718;50.922;5.346;2022-10-20T10:46:19;16.30;99.90
25914;DHT22;13718;50.922;5.346;2022-10-20T10:49:32;16.40;99.90
25914;DHT22;13718;50.922;5.346;2022-10-20T10:57:22;16.50;99.90
25914;DHT22;13718;50.922;5.346;2022-10-20T10:59:51;16.40;99.90
25914;DHT22;13718;50.922;5.346;2022-10-20T11:10:34;16.50;99.90
25914;DHT22;13718;50.922;5.346;2022-10-20T11:24:22;16.90;99.90
25914;DHT22;13718;50.922;5.346;2022-10-20T11:27:12;17.20;99.90
25914;DHT22;13718;50.922;5.346;2022-10-20T11:29:48;17.30;99.90
25914;DHT22;13718;50.922;5.346;2022-10-20T11:32:28;17.40;99.90
25914;DHT22;13718;50.922;5.346;2022-10-20T11:35:06;17.60;99.90
25914;DHT22;13718;50.922;5.346;2022-10-20T11:40:14;17.80;99.90
25914;DHT22;13718;50.922;5.346;2022-10-20T11:42:42;17.80;99.90
25914;DHT22;13718;50.922;5.346;2022-10-20T11:46:16;17.80;99.90
25914;DHT22;13718;50.922;5.346;2022-10-20T11:48:41;17.80;99.90
25914;DHT22;13718;50.922;5.346;2022-10-20T11:56:44;17.80;99.90
25914;DHT22;13718;50.922;5.346;2022-10-20T12:11:48;18.00;99.90
25914;DHT22;13718;50.922;5.346;2022-10-20T12:14:27;17.90;99.90
25914;DHT22;13718;50.922;5.346;2022-10-20T12:19:30;18.00;99.90
25914;DHT22;13718;50.922;5.346;2022-10-20T12:22:36;18.10;99.90
25914;DHT22;13718;50.922;5.346;2022-10-20T12:27:22;18.10;99.90
25914;DHT22;13718;50.922;5.346;2022-10-20T12:29:53;18.10;99.90
25914;DHT22;13718;50.922;5.346;2022-10-20T12:32:50;18.20;99.90
25914;DHT22;13718;50.922;5.346;2022-10-20T12:37:54;18.30;99.90
25914;DHT22;13718;50.922;5.346;2022-10-20T12:40:27;18.40;99.90
25914;DHT22;13718;50.922;5.346;2022-10-20T12:42:54;18.40;99.90
25914;DHT22;13718;50.922;5.346;2022-10-20T12:45:42;18.50;99.90
25914;DHT22;13718;50.922;5.346;2022-10-20T12:48:19;18.40;99.90
25914;DHT22;13718;50.922;5.346;2022-10-20T12:50:47;18.50;99.90
25914;DHT22;13718;50.922;5.346;2022-10-20T12:55:55;18.60;99.90
25914;DHT22;13718;50.922;5.346;2022-10-20T13:05:59;18.90;99.90
25914;DHT22;13718;50.922;5.346;2022-10-20T13:08:34;19.00;99.90
25914;DHT22;13718;50.922;5.346;2022-10-20T13:11:32;19.10;99.90
25914;DHT22;13718;50.922;5.346;2022-10-20T13:17:02;19.00;99.90
25914;DHT22;13718;50.922;5.346;2022-10-20T13:19:44;18.90;99.90
25914;DHT22;13718;50.922;5.346;2022-10-20T13:24:56;19.00;99.90
25914;DHT22;13718;50.922;5.346;2022-10-20T13:27:22;18.80;99.90
25914;DHT22;13718;50.922;5.346;2022-10-20T13:29:49;18.80;99.90
25914;DHT22;13718;50.922;5.346;2022-10-20T13:32:20;18.90;99.90
25914;DHT22;13718;50.922;5.346;2022-10-20T13:34:59;18.80;99.90
25914;DHT22;13718;50.922;5.346;2022-10-20T13:48:37;19.00;99.90
25914;DHT22;13718;50.922;5.346;2022-10-20T13:51:10;18.90;99.90
25914;DHT22;13718;50.922;5.346;2022-10-20T13:53:40;18.90;99.90
25914;DHT22;13718;50.922;5.346;2022-10-20T13:56:19;18.80;99.90
25914;DHT22;13718;50.922;5.346;2022-10-20T13:59:22;18.80;99.90
25914;DHT22;13718;50.922;5.346;2022-10-20T14:04:26;19.20;99.90
25914;DHT22;13718;50.922;5.346;2022-10-20T14:06:52;19.30;99.90
25914;DHT22;13718;50.922;5.346;2022-10-20T14:09:21;19.30;99.90
25914;DHT22;13718;50.922;5.346;2022-10-20T14:11:50;19.30;99.90
25914;DHT22;13718;50.922;5.346;2022-10-20T14:14:21;19.30;99.90
25914;DHT22;13718;50.922;5.346;2022-10-20T14:17:05;19.20;99.90
25914;DHT22;13718;50.922;5.346;2022-10-20T14:19:31;19.20;99.90
25914;DHT22;13718;50.922;5.346;2022-10-20T14:22:21;19.40;99.90
25914;DHT22;13718;50.922;5.346;2022-10-20T14:24:52;19.40;99.90
25914;DHT22;13718;50.922;5.346;2022-10-20T14:27:29;19.40;99.90
25914;DHT22;13718;50.922;5.346;2022-10-20T14:29:56;19.30;99.90
25914;DHT22;13718;50.922;5.346;2022-10-20T14:32:24;19.40;99.90
25914;DHT22;13718;50.922;5.346;2022-10-20T14:34:57;19.30;99.90
25914;DHT22;13718;50.922;5.346;2022-10-20T14:37:40;19.30;99.90
25914;DHT22;13718;50.922;5.346;2022-10-20T14:40:20;19.30;99.90
25914;DHT22;13718;50.922;5.346;2022-10-20T14:42:47;19.40;99.90
25914;DHT22;13718;50.922;5.346;2022-10-20T14:45:21;19.50;99.90
25914;DHT22;13718;50.922;5.346;2022-10-20T14:47:48;19.40;99.90
25914;DHT22;13718;50.922;5.346;2022-10-20T14:52:55;19.20;99.90
25914;DHT22;13718;50.922;5.346;2022-10-20T14:55:33;19.10;99.90
25914;DHT22;13718;50.922;5.346;2022-10-20T14:58:00;19.10;99.90
25914;DHT22;13718;50.922;5.346;2022-10-20T15:00:34;19.10;99.90
25914;DHT22;13718;50.922;5.346;2022-10-20T15:03:02;19.10;99.90
25914;DHT22;13718;50.922;5.346;2022-10-20T15:08:25;19.10;99.90
25914;DHT22;13718;50.922;5.346;2022-10-20T15:10:51;19.10;99.90
25914;DHT22;13718;50.922;5.346;2022-10-20T15:13:29;19.00;99.90
25914;DHT22;13718;50.922;5.346;2022-10-20T15:16:00;19.00;99.90
25914;DHT22;13718;50.922;5.346;2022-10-20T15:18:27;19.00;99.90
25914;DHT22;13718;50.922;5.346;2022-10-20T15:20:54;18.90;99.90
25914;DHT22;13718;50.922;5.346;2022-10-20T15:23:22;19.00;99.90
25914;DHT22;13718;50.922;5.346;2022-10-20T15:26:08;19.10;99.90
25914;DHT22;13718;50.922;5.346;2022-10-20T15:28:45;19.00;99.90
25914;DHT22;13718;50.922;5.346;2022-10-20T15:31:27;18.90;99.90
25914;DHT22;13718;50.922;5.346;2022-10-20T15:33:53;19.00;99.90
25914;DHT22;13718;50.922;5.346;2022-10-20T15:36:22;18.90;99.90
25914;DHT22;13718;50.922;5.346;2022-10-20T15:38:50;18.90;99.90
25914;DHT22;13718;50.922;5.346;2022-10-20T15:41:25;19.00;99.90
25914;DHT22;13718;50.922;5.346;2022-10-20T15:43:51;19.00;99.90
25914;DHT22;13718;50.922;5.346;2022-10-20T15:46:18;19.10;99.90
25914;DHT22;13718;50.922;5.346;2022-10-20T15:48:44;19.20;99.90
25914;DHT22;13718;50.922;5.346;2022-10-20T15:51:30;19.20;99.90
25914;DHT22;13718;50.922;5.346;2022-10-20T15:53:57;19.20;99.90
25914;DHT22;13718;50.922;5.346;2022-10-20T15:56:22;19.30;99.90
25914;DHT22;13718;50.922;5.346;2022-10-20T15:58:48;19.50;99.90
25914;DHT22;13718;50.922;5.346;2022-10-20T16:01:15;19.50;99.90
25914;DHT22;13718;50.922;5.346;2022-10-20T16:03:43;19.40;99.90
25914;DHT22;13718;50.922;5.346;2022-10-20T16:06:10;19.30;99.90
25914;DHT22;13718;50.922;5.346;2022-10-20T16:08:38;19.20;99.90
25914;DHT22;13718;50.922;5.346;2022-10-20T16:11:04;19.20;99.90
25914;DHT22;13718;50.922;5.346;2022-10-20T16:13:34;19.20;99.90
25914;DHT22;13718;50.922;5.346;2022-10-20T16:16:00;19.30;99.90
25914;DHT22;13718;50.922;5.346;2022-10-20T16:18:26;19.20;99.90
25914;DHT22;13718;50.922;5.346;2022-10-20T16:20:52;19.10;99.90
25914;DHT22;13718;50.922;5.346;2022-10-20T16:23:18;19.00;99.90
25914;DHT22;13718;50.922;5.346;2022-10-20T16:25:44;18.90;99.90
25914;DHT22;13718;50.922;5.346;2022-10-20T16:28:10;18.80;99.90
25914;DHT22;13718;50.922;5.346;2022-10-20T16:30:35;18.80;99.90
25914;DHT22;13718;50.922;5.346;2022-10-20T16:33:01;18.80;99.90
25914;DHT22;13718;50.922;5.346;2022-10-20T16:35:27;18.80;99.90
25914;DHT22;13718;50.922;5.346;2022-10-20T16:37:53;18.80;99.90
25914;DHT22;13718;50.922;5.346;2022-10-20T16:40:18;18.80;99.90
25914;DHT22;13718;50.922;5.346;2022-10-20T16:42:44;18.90;99.90
25914;DHT22;13718;50.922;5.346;2022-10-20T16:45:10;19.00;99.90
25914;DHT22;13718;50.922;5.346;2022-10-20T16:47:35;19.00;99.90
25914;DHT22;13718;50.922;5.346;2022-10-20T16:50:01;19.00;99.90
25914;DHT22;13718;50.922;5.346;2022-10-20T16:52:26;19.00;99.90
25914;DHT22;13718;50.922;5.346;2022-10-20T16:54:52;19.00;99.90
25914;DHT22;13718;50.922;5.346;2022-10-20T16:57:18;19.00;99.90
25914;DHT22;13718;50.922;5.346;2022-10-20T16:59:44;18.90;99.90
25914;DHT22;13718;50.922;5.346;2022-10-20T17:02:15;18.70;99.90
25914;DHT22;13718;50.922;5.346;2022-10-20T17:04:40;18.60;99.90
25914;DHT22;13718;50.922;5.346;2022-10-20T17:07:06;18.50;99.90
25914;DHT22;13718;50.922;5.346;2022-10-20T17:09:33;18.50;99.90
25914;DHT22;13718;50.922;5.346;2022-10-20T17:11:58;18.50;99.90
25914;DHT22;13718;50.922;5.346;2022-10-20T17:14:24;18.40;99.90
25914;DHT22;13718;50.922;5.346;2022-10-20T17:16:50;18.50;99.90
25914;DHT22;13718;50.922;5.346;2022-10-20T17:19:15;18.70;99.90
25914;DHT22;13718;50.922;5.346;2022-10-20T17:21:41;18.80;99.90
25914;DHT22;13718;50.922;5.346;2022-10-20T17:24:11;18.80;99.90
25914;DHT22;13718;50.922;5.346;2022-10-20T17:26:38;18.80;99.90
25914;DHT22;13718;50.922;5.346;2022-10-20T17:29:04;18.90;99.90
25914;DHT22;13718;50.922;5.346;2022-10-20T17:31:30;18.80;99.90
25914;DHT22;13718;50.922;5.346;2022-10-20T17:33:57;18.70;99.90
25914;DHT22;13718;50.922;5.346;2022-10-20T17:36:24;18.70;99.90
25914;DHT22;13718;50.922;5.346;2022-10-20T17:38:55;18.80;99.90
25914;DHT22;13718;50.922;5.346;2022-10-20T17:41:22;18.80;99.90